Aérodrome :
LOGIN :

S'inscrire | Disclaimer

   EN    FR    IT 

 










Légende :    VFR   VFR Marginal   IFR   IFR Intensif   IFR Très Intensif
Visi : 
Plafond : 
>= 8 km
>= 3000ft
5 à 8 km
1000 à 3000 ft
1500m à 5 km
500 à 1000 ft
800 à 1500m
200 à 500 ft
< 800m
< 200 ft
Symboles :   Orages  Brouillard  Fortes neiges  Fortes précipitations  Vent > 20 kt
SIGMETs :   Divers  Orages  Givrage  Turbulence  Onde Orograph.  Cendres Volcan.






- Altitude de l'aérodrome : 1345 ft
- Code IATA : FRZ


ETHF - Fritzlar

DERNIER METAR :
  • 041420Z 09002KT 9999 SCT040 SCT090 23/12 Q1012 BLU+BLU+ TEMPO WHT

METARs EXPIRÉS :
  • 041320Z 30003KT 9999 SCT035 SCT280 21/11 Q1012 BLU+BLU+ TEMPO WHT
  • 041220Z 13003KT 9999 SCT025 SCT090 20/12 Q1013 BLU+BLU+ TEMPO WHT

TAF TAF ETHF
Valide du 04 à 14h jusqu'au 04 à 20h UTC


041320Z 0414/0420 VRB03KT 9999 NSW SCT030 SCT270
TEMPO 0414/0418 19008KT 5000 SHRA SCT015 BKN020CB



MET'MAP, la Météo Aéronautique d'un coup d'oeil ! - Copyright ORBIFLY Décembre 2007 - Disclaimer

ORBIFLY MET'MAP TEAM :

Programmation & Développement : Alexandra Zaïnal
Sur une idée originale de : Baudouin d'Aumeries
Assistance à la programmation : Marc-Olivier Méhu
Soutien technique & logistique : Manuel Goepfert

Contact : metmap@orbifly.com




SOURCES & CREDITS :

   NOAA